Time;durP1;ratioP1;P1;durP2;ratioP2;P2;SDS_P1;SDS_P2;PMS_P1;PMS_P2;Temp;Humidity;BMP_temperature;BMP_pressure;BME280_temperature;BME280_humidity;BME280_pressure;Samples;Min_cycle;Max_cycle;Signal;HPM_P1;HPM_P2
2021/11/21 00:00:49;;;;;;;49.30;24.10;;;;;;;;;;4995772;28;20194;-70
2021/11/21 00:03:14;;;;;;;47.65;22.60;;;;;;;;;;5000343;28;20190;-71
2021/11/21 00:05:44;;;;;;;46.15;23.45;;;;;;;;;;4998352;28;20309;-71
2021/11/21 00:08:11;;;;;;;50.67;23.40;;;;;;;;;;5002186;28;20187;-71
2021/11/21 00:10:37;;;;;;;48.17;22.50;;;;;;;;;;4995200;28;20282;-70
2021/11/21 00:13:03;;;;;;;49.25;22.70;;;;;;;;;;5005854;28;20550;-70
2021/11/21 00:15:29;;;;;;;47.15;22.98;;;;;;;;;;4991959;28;20195;-70
2021/11/21 00:17:54;;;;;;;48.40;22.65;;;;;;;;;;5003104;28;20669;-70
2021/11/21 00:20:20;;;;;;;51.80;23.98;;;;;;;;;;4995500;28;20253;-70
2021/11/21 00:22:46;;;;;;;52.70;24.08;;;;;;;;;;5002394;28;20573;-71
2021/11/21 00:25:11;;;;;;;48.57;23.53;;;;;;;;;;5001985;28;20603;-71
2021/11/21 00:27:37;;;;;;;48.57;22.60;;;;;;;;;;5003243;28;20262;-71
2021/11/21 00:30:04;;;;;;;50.57;22.83;;;;;;;;;;5007295;28;20218;-70
2021/11/21 00:32:29;;;;;;;45.87;23.13;;;;;;;;;;4997042;28;20205;-70
2021/11/21 00:34:55;;;;;;;44.95;22.65;;;;;;;;;;5003704;28;20183;-70
2021/11/21 00:37:20;;;;;;;49.03;24.73;;;;;;;;;;4995077;28;20206;-70
2021/11/21 00:39:45;;;;;;;49.67;22.60;;;;;;;;;;5006896;28;20198;-70
2021/11/21 00:42:14;;;;;;;47.27;22.87;;;;;;;;;;4995771;28;20245;-70
2021/11/21 00:44:40;;;;;;;47.60;23.17;;;;;;;;;;4997421;28;20654;-70
2021/11/21 00:47:05;;;;;;;49.78;24.70;;;;;;;;;;4997226;28;20193;-71
2021/11/21 00:49:31;;;;;;;47.65;23.70;;;;;;;;;;5005302;28;20187;-71
2021/11/21 00:51:57;;;;;;;50.83;23.37;;;;;;;;;;4996899;28;20198;-70
2021/11/21 00:54:30;;;;;;;48.77;23.57;;;;;;;;;;5004058;28;20216;-70
2021/11/21 00:56:55;;;;;;;49.08;23.83;;;;;;;;;;4996602;28;20214;-70
2021/11/21 00:59:21;;;;;;;45.43;23.13;;;;;;;;;;5003893;28;20178;-70
2021/11/21 01:01:48;;;;;;;51.03;23.97;;;;;;;;;;5009001;28;20178;-70
2021/11/21 01:04:14;;;;;;;43.70;22.63;;;;;;;;;;4994305;28;20430;-70
2021/11/21 01:06:39;;;;;;;47.77;23.33;;;;;;;;;;5004104;28;20199;-70
2021/11/21 01:09:05;;;;;;;46.57;23.37;;;;;;;;;;4995643;28;20244;-70
2021/11/21 01:11:30;;;;;;;46.60;23.83;;;;;;;;;;5009465;28;20185;-70
2021/11/21 01:13:55;;;;;;;46.43;23.13;;;;;;;;;;4993314;28;20611;-70
2021/11/21 01:16:21;;;;;;;45.13;23.43;;;;;;;;;;5005687;28;20563;-71
2021/11/21 01:18:46;;;;;;;43.50;22.33;;;;;;;;;;4999337;28;20186;-70
2021/11/21 01:21:12;;;;;;;44.03;22.43;;;;;;;;;;4996825;28;20293;-71
2021/11/21 01:23:37;;;;;;;48.73;23.20;;;;;;;;;;4994397;28;20195;-70
2021/11/21 01:26:03;;;;;;;44.80;22.63;;;;;;;;;;5011612;28;20206;-71
2021/11/21 01:28:29;;;;;;;42.20;21.83;;;;;;;;;;4995067;28;20215;-70
2021/11/21 01:30:54;;;;;;;43.27;22.03;;;;;;;;;;5001915;28;20183;-70
2021/11/21 01:33:19;;;;;;;40.50;21.73;;;;;;;;;;5002685;28;20197;-71
2021/11/21 01:35:45;;;;;;;42.50;21.40;;;;;;;;;;5006288;28;20181;-70
2021/11/21 01:38:11;;;;;;;40.97;20.73;;;;;;;;;;5002212;28;20182;-71
2021/11/21 01:40:37;;;;;;;46.72;23.45;;;;;;;;;;4993356;28;20198;-70
2021/11/21 01:43:03;;;;;;;42.78;22.63;;;;;;;;;;5005589;28;20194;-70
2021/11/21 01:45:30;;;;;;;44.10;21.65;;;;;;;;;;5003224;28;20213;-69
2021/11/21 01:47:55;;;;;;;41.83;22.23;;;;;;;;;;5005341;28;20647;-69
2021/11/21 01:50:30;;;;;;;47.53;22.57;;;;;;;;;;5002255;28;20194;-70
2021/11/21 01:52:57;;;;;;;39.20;21.53;;;;;;;;;;5009016;28;20266;-70
2021/11/21 01:55:23;;;;;;;41.50;22.27;;;;;;;;;;4992175;28;20214;-71
2021/11/21 01:57:48;;;;;;;46.10;22.67;;;;;;;;;;5007140;28;20190;-70
2021/11/21 02:00:15;;;;;;;44.50;23.17;;;;;;;;;;5000258;28;20542;-70
2021/11/21 02:02:41;;;;;;;45.67;22.60;;;;;;;;;;5006533;28;20190;-70
2021/11/21 02:05:07;;;;;;;42.77;22.70;;;;;;;;;;5000120;28;20222;-70
2021/11/21 02:07:33;;;;;;;45.67;24.50;;;;;;;;;;5007744;28;20273;-70
2021/11/21 02:09:59;;;;;;;48.28;24.50;;;;;;;;;;5003185;28;20201;-70
2021/11/21 02:12:24;;;;;;;47.90;24.30;;;;;;;;;;4997609;28;20289;-70
2021/11/21 02:14:49;;;;;;;49.70;24.13;;;;;;;;;;5009689;28;20664;-70
2021/11/21 02:17:15;;;;;;;49.33;24.48;;;;;;;;;;4997278;28;20217;-70
2021/11/21 02:19:40;;;;;;;48.93;25.13;;;;;;;;;;5008759;28;20183;-70
2021/11/21 02:22:06;;;;;;;48.03;24.48;;;;;;;;;;5000622;28;20210;-70
2021/11/21 02:24:32;;;;;;;48.97;24.70;;;;;;;;;;5006134;28;20304;-70
2021/11/21 02:26:57;;;;;;;51.83;26.27;;;;;;;;;;4994126;28;20252;-70
2021/11/21 02:29:23;;;;;;;50.83;25.93;;;;;;;;;;5005204;28;20201;-70
2021/11/21 02:31:48;;;;;;;47.87;26.00;;;;;;;;;;5002636;28;20254;-70
2021/11/21 02:34:14;;;;;;;52.77;25.90;;;;;;;;;;5004680;28;20191;-70
2021/11/21 02:36:44;;;;;;;52.43;27.03;;;;;;;;;;5014700;28;20271;-70
2021/11/21 02:39:11;;;;;;;49.20;24.80;;;;;;;;;;5004988;28;20218;-71
2021/11/21 02:41:37;;;;;;;51.50;25.93;;;;;;;;;;5007726;28;20201;-70
2021/11/21 02:44:03;;;;;;;52.37;26.70;;;;;;;;;;4996892;28;20190;-70
2021/11/21 02:46:31;;;;;;;47.90;25.70;;;;;;;;;;5011856;28;20206;-70
2021/11/21 02:48:56;;;;;;;51.13;26.17;;;;;;;;;;4999801;28;20273;-70
2021/11/21 02:51:22;;;;;;;52.92;26.23;;;;;;;;;;5004773;28;20269;-70
2021/11/21 02:53:47;;;;;;;53.35;25.75;;;;;;;;;;4999204;28;20209;-70
2021/11/21 02:56:15;;;;;;;55.85;27.92;;;;;;;;;;5015533;28;20207;-70
2021/11/21 02:58:41;;;;;;;55.58;27.65;;;;;;;;;;4998619;28;20183;-70
2021/11/21 03:01:10;;;;;;;55.03;27.17;;;;;;;;;;5003375;28;20193;-71
2021/11/21 03:03:36;;;;;;;57.13;27.30;;;;;;;;;;5000454;28;20191;-71
2021/11/21 03:06:02;;;;;;;56.20;27.42;;;;;;;;;;5006737;28;20647;-70
2021/11/21 03:08:27;;;;;;;59.53;28.25;;;;;;;;;;4998539;28;20190;-70
2021/11/21 03:10:54;;;;;;;63.72;28.33;;;;;;;;;;5005518;28;20215;-70
2021/11/21 03:13:19;;;;;;;54.53;27.10;;;;;;;;;;5003500;28;20179;-70
2021/11/21 03:15:45;;;;;;;53.22;26.77;;;;;;;;;;5006235;28;20546;-70
2021/11/21 03:18:10;;;;;;;55.97;26.80;;;;;;;;;;5004402;28;20311;-70
2021/11/21 03:20:37;;;;;;;53.03;26.70;;;;;;;;;;4994359;28;20871;-70
2021/11/21 03:23:05;;;;;;;53.70;26.98;;;;;;;;;;5007165;28;20194;-70
2021/11/21 03:25:31;;;;;;;54.65;28.42;;;;;;;;;;4996396;28;20210;-70
2021/11/21 03:27:56;;;;;;;54.30;28.33;;;;;;;;;;5006457;28;20187;-70
2021/11/21 03:30:23;;;;;;;61.45;29.60;;;;;;;;;;4998925;28;20199;-70
2021/11/21 03:32:49;;;;;;;59.60;28.85;;;;;;;;;;4999341;28;20221;-70
2021/11/21 03:35:16;;;;;;;58.63;28.27;;;;;;;;;;4994360;28;20215;-70
2021/11/21 03:37:42;;;;;;;57.22;28.35;;;;;;;;;;5014096;28;20183;-70
2021/11/21 03:40:10;;;;;;;54.70;28.35;;;;;;;;;;4992680;28;20331;-71
2021/11/21 03:42:36;;;;;;;63.95;28.52;;;;;;;;;;5000632;28;20196;-71
2021/11/21 03:45:03;;;;;;;54.58;27.50;;;;;;;;;;4996810;28;20203;-71
2021/11/21 03:47:28;;;;;;;64.82;30.00;;;;;;;;;;5008651;28;20250;-71
2021/11/21 03:49:54;;;;;;;65.25;29.40;;;;;;;;;;5005013;28;20191;-71
2021/11/21 03:52:19;;;;;;;64.60;29.55;;;;;;;;;;4998714;28;20182;-71
2021/11/21 03:54:44;;;;;;;59.28;29.63;;;;;;;;;;5017401;28;20335;-72
2021/11/21 03:57:11;;;;;;;65.25;30.90;;;;;;;;;;4997781;28;20190;-74
2021/11/21 03:59:36;;;;;;;63.35;29.08;;;;;;;;;;5017767;28;20210;-75
2021/11/21 04:02:02;;;;;;;61.05;29.10;;;;;;;;;;4997245;28;20599;-76
2021/11/21 04:04:29;;;;;;;62.97;29.58;;;;;;;;;;5009389;28;20544;-77
2021/11/21 04:06:55;;;;;;;63.53;29.83;;;;;;;;;;5006334;28;20229;-77
2021/11/21 04:09:21;;;;;;;63.30;29.90;;;;;;;;;;5005442;28;20206;-76
2021/11/21 04:11:47;;;;;;;63.28;28.88;;;;;;;;;;4996449;28;20922;-74
2021/11/21 04:14:12;;;;;;;53.60;26.00;;;;;;;;;;5007123;28;20191;-74
2021/11/21 04:16:38;;;;;;;63.10;28.60;;;;;;;;;;4997366;28;20251;-75
2021/11/21 04:19:04;;;;;;;61.43;28.97;;;;;;;;;;5004001;28;20281;-75
2021/11/21 04:21:30;;;;;;;60.27;28.87;;;;;;;;;;5005657;28;20607;-77
2021/11/21 04:23:56;;;;;;;64.37;28.80;;;;;;;;;;5000860;28;20246;-76
2021/11/21 04:26:22;;;;;;;59.37;26.87;;;;;;;;;;5004939;28;20203;-77
2021/11/21 04:28:47;;;;;;;56.70;26.30;;;;;;;;;;5004670;28;20249;-77
2021/11/21 04:31:12;;;;;;;57.10;26.47;;;;;;;;;;5006729;28;20553;-75
2021/11/21 04:33:38;;;;;;;57.80;27.13;;;;;;;;;;4997371;28;20175;-75
2021/11/21 04:36:04;;;;;;;55.63;25.93;;;;;;;;;;5004170;28;20280;-75
2021/11/21 04:38:29;;;;;;;56.13;26.47;;;;;;;;;;4996958;28;20615;-77
2021/11/21 04:40:55;;;;;;;62.70;26.37;;;;;;;;;;5005137;28;20198;-78
2021/11/21 04:43:21;;;;;;;52.20;24.47;;;;;;;;;;5004859;28;20618;-77
2021/11/21 04:45:47;;;;;;;63.67;26.13;;;;;;;;;;5005916;28;20348;-79
2021/11/21 04:48:13;;;;;;;56.23;23.20;;;;;;;;;;5006086;28;20677;-79
2021/11/21 04:50:39;;;;;;;48.80;22.87;;;;;;;;;;5004069;28;20191;-77
2021/11/21 04:53:05;;;;;;;46.50;22.43;;;;;;;;;;5032407;28;20189;-77
2021/11/21 04:55:30;;;;;;;50.20;22.87;;;;;;;;;;4998031;28;20198;-76
2021/11/21 04:57:56;;;;;;;39.47;18.90;;;;;;;;;;5015379;28;20179;-75
2021/11/21 05:00:22;;;;;;;40.33;19.43;;;;;;;;;;4995670;28;20187;-75
2021/11/21 05:02:49;;;;;;;34.57;16.30;;;;;;;;;;5001266;28;20182;-74
2021/11/21 05:05:16;;;;;;;36.53;16.97;;;;;;;;;;4996189;28;20230;-73
2021/11/21 05:07:42;;;;;;;33.67;15.90;;;;;;;;;;5014921;28;20186;-73
2021/11/21 05:10:08;;;;;;;35.53;16.93;;;;;;;;;;4997182;28;20654;-71
2021/11/21 05:12:36;;;;;;;33.90;16.00;;;;;;;;;;5010693;28;20182;-71
2021/11/21 05:15:03;;;;;;;31.60;16.03;;;;;;;;;;4996016;28;20692;-71
2021/11/21 05:17:28;;;;;;;30.83;15.47;;;;;;;;;;5002314;28;20260;-71
2021/11/21 05:19:54;;;;;;;34.27;16.63;;;;;;;;;;4994177;28;20670;-71
2021/11/21 05:22:20;;;;;;;32.23;15.93;;;;;;;;;;5007619;28;20186;-71
2021/11/21 05:24:45;;;;;;;35.20;16.73;;;;;;;;;;5010866;28;20524;-71
2021/11/21 05:27:11;;;;;;;38.83;16.43;;;;;;;;;;5000320;28;20215;-71
2021/11/21 05:29:36;;;;;;;33.27;16.00;;;;;;;;;;5004973;28;20195;-71
2021/11/21 05:32:02;;;;;;;32.43;15.60;;;;;;;;;;5002367;28;20187;-71
2021/11/21 05:34:28;;;;;;;33.50;16.15;;;;;;;;;;5008156;28;20213;-71
2021/11/21 05:36:53;;;;;;;35.57;16.93;;;;;;;;;;4995937;28;20542;-71
2021/11/21 05:39:19;;;;;;;34.00;16.27;;;;;;;;;;5008071;28;20175;-71
2021/11/21 05:41:44;;;;;;;34.40;17.63;;;;;;;;;;5001426;28;20214;-71
2021/11/21 05:44:10;;;;;;;36.27;16.70;;;;;;;;;;5011041;28;20187;-71
2021/11/21 05:46:35;;;;;;;36.17;16.30;;;;;;;;;;4998890;28;20221;-71
2021/11/21 05:49:01;;;;;;;39.03;16.90;;;;;;;;;;5004374;28;20595;-71
2021/11/21 05:51:26;;;;;;;35.30;16.30;;;;;;;;;;5007296;28;20187;-71
2021/11/21 05:53:52;;;;;;;35.00;16.50;;;;;;;;;;5001391;28;20221;-71
2021/11/21 05:56:19;;;;;;;39.07;17.43;;;;;;;;;;5005636;28;20696;-71
2021/11/21 05:58:44;;;;;;;35.10;16.77;;;;;;;;;;4997341;28;20186;-71
2021/11/21 06:01:10;;;;;;;31.97;16.13;;;;;;;;;;5005670;28;20218;-71
2021/11/21 06:03:35;;;;;;;33.93;16.67;;;;;;;;;;4995124;28;20214;-71
2021/11/21 06:06:00;;;;;;;32.17;15.97;;;;;;;;;;5001533;28;20321;-71
2021/11/21 06:08:26;;;;;;;33.20;16.50;;;;;;;;;;4998297;28;20290;-71
2021/11/21 06:10:51;;;;;;;32.53;16.00;;;;;;;;;;5005375;28;20552;-71
2021/11/21 06:13:17;;;;;;;37.13;16.23;;;;;;;;;;4999312;28;20190;-71
2021/11/21 06:15:44;;;;;;;35.50;15.37;;;;;;;;;;5006764;28;20187;-71
2021/11/21 06:18:09;;;;;;;30.92;15.73;;;;;;;;;;4996055;28;20249;-71
2021/11/21 06:20:35;;;;;;;31.35;15.23;;;;;;;;;;5002570;28;20184;-71
2021/11/21 06:23:00;;;;;;;35.92;16.60;;;;;;;;;;5005748;28;20190;-71
2021/11/21 06:25:25;;;;;;;32.65;15.85;;;;;;;;;;4996040;28;20242;-71
2021/11/21 06:27:51;;;;;;;32.35;15.32;;;;;;;;;;5006273;28;20191;-71
2021/11/21 06:30:16;;;;;;;33.97;15.40;;;;;;;;;;4999271;28;20186;-71
2021/11/21 06:32:42;;;;;;;34.67;15.77;;;;;;;;;;5013554;28;20191;-71
2021/11/21 06:35:08;;;;;;;32.08;13.80;;;;;;;;;;4996021;28;20183;-71
2021/11/21 06:37:34;;;;;;;31.73;13.90;;;;;;;;;;5005185;28;20214;-71
2021/11/21 06:40:00;;;;;;;27.48;12.90;;;;;;;;;;4994986;28;20207;-71
2021/11/21 06:42:25;;;;;;;29.42;12.52;;;;;;;;;;5003822;28;20540;-69
2021/11/21 06:44:50;;;;;;;26.17;12.40;;;;;;;;;;4998877;28;20178;-70
2021/11/21 06:47:18;;;;;;;27.08;12.30;;;;;;;;;;5005556;28;20569;-70
2021/11/21 06:49:45;;;;;;;27.63;12.05;;;;;;;;;;4996442;28;20646;-70
2021/11/21 06:52:10;;;;;;;26.33;11.95;;;;;;;;;;5005353;28;20606;-71
2021/11/21 06:54:35;;;;;;;25.13;10.57;;;;;;;;;;5005803;28;20222;-71
2021/11/21 06:57:01;;;;;;;22.13;10.13;;;;;;;;;;4999389;28;20203;-71
2021/11/21 06:59:26;;;;;;;20.15;9.88;;;;;;;;;;5005137;28;20186;-70
2021/11/21 07:01:52;;;;;;;28.73;9.65;;;;;;;;;;4995729;28;20199;-70
2021/11/21 07:04:17;;;;;;;19.15;8.32;;;;;;;;;;5006831;28;20817;-70
2021/11/21 07:06:46;;;;;;;18.77;8.30;;;;;;;;;;4995168;28;20726;-69
2021/11/21 07:09:13;;;;;;;21.02;7.65;;;;;;;;;;5012638;28;20194;-72
2021/11/21 07:11:40;;;;;;;19.80;7.72;;;;;;;;;;4997820;28;20206;-70
2021/11/21 07:14:07;;;;;;;16.98;6.53;;;;;;;;;;5002589;28;20174;-71
2021/11/21 07:16:33;;;;;;;17.37;5.60;;;;;;;;;;4993117;28;20182;-70
2021/11/21 07:18:58;;;;;;;15.67;5.87;;;;;;;;;;5007366;28;20499;-70
2021/11/21 07:21:23;;;;;;;17.42;5.53;;;;;;;;;;4997319;28;22358;-70
2021/11/21 07:23:49;;;;;;;18.57;5.60;;;;;;;;;;4310531;28;10000721;-70
2021/11/21 07:26:14;;;;;;;15.95;5.32;;;;;;;;;;4997740;28;20580;-71
2021/11/21 07:28:40;;;;;;;12.02;5.00;;;;;;;;;;4993310;28;20277;-71
2021/11/21 07:31:07;;;;;;;14.52;5.22;;;;;;;;;;5003609;28;20179;-71
2021/11/21 07:33:32;;;;;;;15.98;4.95;;;;;;;;;;4991181;28;20211;-71
2021/11/21 07:35:58;;;;;;;17.98;5.20;;;;;;;;;;5002239;28;20198;-70
2021/11/21 07:38:23;;;;;;;14.63;4.45;;;;;;;;;;4991529;28;20236;-71
2021/11/21 07:40:52;;;;;;;14.03;4.30;;;;;;;;;;5003276;28;20175;-70
2021/11/21 07:43:17;;;;;;;19.35;4.40;;;;;;;;;;4993687;28;20694;-71
2021/11/21 07:45:42;;;;;;;16.45;4.53;;;;;;;;;;4994775;28;20221;-71
2021/11/21 07:48:08;;;;;;;14.55;4.32;;;;;;;;;;4992403;28;20237;-71
2021/11/21 07:50:33;;;;;;;16.83;4.30;;;;;;;;;;4997763;28;20171;-71
2021/11/21 07:52:59;;;;;;;13.07;3.47;;;;;;;;;;4995139;28;20190;-71
2021/11/21 07:55:24;;;;;;;26.98;5.78;;;;;;;;;;5002358;28;20198;-71
2021/11/21 07:57:49;;;;;;;14.32;3.70;;;;;;;;;;5000361;28;20183;-71
2021/11/21 08:00:15;;;;;;;11.80;3.28;;;;;;;;;;4991505;28;20263;-71
2021/11/21 08:02:41;;;;;;;17.17;4.13;;;;;;;;;;5002482;28;20179;-71
2021/11/21 08:05:07;;;;;;;12.07;3.55;;;;;;;;;;4986945;28;20351;-71
2021/11/21 08:07:32;;;;;;;13.05;3.65;;;;;;;;;;5000505;28;20550;-70
2021/11/21 08:09:58;;;;;;;22.23;3.38;;;;;;;;;;4988920;28;20191;-71
2021/11/21 08:12:23;;;;;;;10.98;2.90;;;;;;;;;;4998940;28;20187;-71
2021/11/21 08:14:49;;;;;;;10.73;2.78;;;;;;;;;;4992719;28;20186;-70
2021/11/21 08:17:14;;;;;;;9.90;2.80;;;;;;;;;;5001816;28;20253;-70
2021/11/21 08:19:40;;;;;;;7.53;2.58;;;;;;;;;;4994345;28;20214;-70
2021/11/21 08:22:06;;;;;;;14.13;2.75;;;;;;;;;;4998812;28;20715;-70
2021/11/21 08:24:31;;;;;;;13.55;2.63;;;;;;;;;;4987377;28;20188;-70
2021/11/21 08:26:57;;;;;;;17.17;2.58;;;;;;;;;;4999466;28;20279;-70
2021/11/21 08:29:23;;;;;;;13.43;2.55;;;;;;;;;;5014371;28;20929;-71
2021/11/21 08:31:50;;;;;;;16.77;2.85;;;;;;;;;;4993682;28;20194;-70
2021/11/21 08:34:16;;;;;;;9.73;1.90;;;;;;;;;;4996939;28;20187;-70
2021/11/21 08:36:43;;;;;;;12.60;1.75;;;;;;;;;;4994026;28;20270;-70
2021/11/21 08:39:08;;;;;;;11.75;1.70;;;;;;;;;;4998235;28;20210;-70
2021/11/21 08:41:33;;;;;;;11.02;2.20;;;;;;;;;;4995829;28;20186;-70
2021/11/21 08:43:59;;;;;;;10.38;2.00;;;;;;;;;;5006134;28;20186;-70
2021/11/21 08:46:26;;;;;;;12.27;1.90;;;;;;;;;;4995494;28;20218;-71
2021/11/21 08:48:51;;;;;;;12.98;1.90;;;;;;;;;;5004134;28;20336;-71
2021/11/21 08:51:17;;;;;;;15.60;1.77;;;;;;;;;;4991036;28;20626;-71
2021/11/21 08:53:45;;;;;;;14.90;2.28;;;;;;;;;;5001994;28;20766;-71
2021/11/21 08:56:11;;;;;;;13.83;1.90;;;;;;;;;;4993815;28;20209;-70
2021/11/21 08:58:36;;;;;;;18.57;2.23;;;;;;;;;;5005051;28;20191;-70
2021/11/21 09:01:02;;;;;;;12.63;2.20;;;;;;;;;;5000981;28;20578;-71
2021/11/21 09:03:29;;;;;;;16.17;1.70;;;;;;;;;;4996743;28;20253;-70
2021/11/21 09:05:55;;;;;;;12.63;2.70;;;;;;;;;;5005619;28;20218;-70
2021/11/21 09:08:23;;;;;;;14.30;2.70;;;;;;;;;;4998272;28;20217;-70
2021/11/21 09:10:48;;;;;;;11.32;2.05;;;;;;;;;;5001347;28;20190;-70
2021/11/21 09:13:14;;;;;;;14.60;2.05;;;;;;;;;;4997388;28;20196;-71
2021/11/21 09:15:39;;;;;;;9.30;1.58;;;;;;;;;;5001136;28;20179;-71
2021/11/21 09:18:05;;;;;;;17.70;2.33;;;;;;;;;;4994568;28;20190;-71
2021/11/21 09:20:30;;;;;;;11.73;2.03;;;;;;;;;;4996423;28;20190;-71
2021/11/21 09:22:56;;;;;;;10.83;1.73;;;;;;;;;;4992047;28;20658;-71
2021/11/21 09:25:23;;;;;;;14.73;1.83;;;;;;;;;;5004134;28;20202;-71
2021/11/21 09:27:48;;;;;;;12.57;1.53;;;;;;;;;;4991319;28;21514;-70
2021/11/21 09:30:14;;;;;;;24.73;2.30;;;;;;;;;;5001510;28;20262;-70
2021/11/21 09:32:39;;;;;;;11.83;2.17;;;;;;;;;;5000458;28;20186;-70
2021/11/21 09:35:06;;;;;;;10.50;1.70;;;;;;;;;;5009562;28;20206;-70
2021/11/21 09:37:32;;;;;;;12.83;2.13;;;;;;;;;;5003777;28;20191;-70
2021/11/21 09:39:57;;;;;;;11.33;1.50;;;;;;;;;;4995900;28;20615;-71
2021/11/21 09:42:22;;;;;;;12.50;1.37;;;;;;;;;;5007217;28;20198;-71
2021/11/21 09:44:48;;;;;;;12.10;1.48;;;;;;;;;;5000867;28;20193;-71
2021/11/21 09:47:14;;;;;;;15.17;1.50;;;;;;;;;;5002750;28;20796;-70
2021/11/21 09:49:41;;;;;;;15.23;2.40;;;;;;;;;;5003746;28;20191;-70
2021/11/21 09:52:06;;;;;;;15.13;1.57;;;;;;;;;;5004842;28;20266;-70
2021/11/21 09:54:32;;;;;;;12.37;1.53;;;;;;;;;;5001176;28;20381;-69
2021/11/21 09:56:57;;;;;;;14.00;1.50;;;;;;;;;;5011035;28;20220;-70
2021/11/21 09:59:53;;;;;;;11.53;1.77;;;;;;;;;;4993877;28;20249;-71
2021/11/21 10:02:40;;;;;;;13.70;2.10;;;;;;;;;;4991230;28;20274;-70
2021/11/21 10:05:13;;;;;;;14.73;1.70;;;;;;;;;;4993938;28;20326;-71
2021/11/21 10:07:38;;;;;;;12.53;1.97;;;;;;;;;;4991407;28;20183;-71
2021/11/21 10:10:10;;;;;;;10.47;1.97;;;;;;;;;;4996474;28;20195;-71
2021/11/21 10:12:38;;;;;;;12.73;1.63;;;;;;;;;;4996556;28;20175;-71
2021/11/21 10:15:07;;;;;;;13.00;2.33;;;;;;;;;;4996149;28;20313;-71
2021/11/21 10:17:34;;;;;;;8.70;1.27;;;;;;;;;;5000307;28;20186;-70
2021/11/21 10:20:09;;;;;;;11.23;1.40;;;;;;;;;;5002473;28;20270;-71
2021/11/21 10:23:07;;;;;;;13.50;2.03;;;;;;;;;;5000308;28;20190;-70
2021/11/21 10:25:33;;;;;;;12.53;1.70;;;;;;;;;;4994903;28;20210;-70
2021/11/21 10:28:06;;;;;;;10.20;1.60;;;;;;;;;;5004527;28;20195;-71
2021/11/21 10:30:33;;;;;;;14.37;1.37;;;;;;;;;;5003920;28;20187;-71
2021/11/21 10:33:05;;;;;;;9.17;1.60;;;;;;;;;;4993628;28;20201;-71
2021/11/21 10:35:31;;;;;;;17.17;1.87;;;;;;;;;;4999886;28;20183;-72
2021/11/21 10:37:57;;;;;;;13.77;1.37;;;;;;;;;;4993870;28;20190;-71
2021/11/21 10:40:24;;;;;;;12.17;2.83;;;;;;;;;;5005075;28;20191;-70
2021/11/21 10:42:53;;;;;;;11.40;1.30;;;;;;;;;;4996431;28;20187;-71
2021/11/21 10:45:36;;;;;;;7.33;1.50;;;;;;;;;;5006479;28;20282;-70
2021/11/21 10:48:01;;;;;;;19.40;1.53;;;;;;;;;;4995233;28;20343;-70
2021/11/21 10:50:31;;;;;;;15.43;2.03;;;;;;;;;;5015348;28;20261;-69
2021/11/21 10:52:59;;;;;;;11.10;1.10;;;;;;;;;;4995349;28;20244;-71
2021/11/21 10:55:25;;;;;;;13.07;1.30;;;;;;;;;;5000375;28;20367;-71
2021/11/21 10:57:50;;;;;;;8.47;1.43;;;;;;;;;;4994110;28;20325;-71
2021/11/21 11:00:28;;;;;;;13.17;1.73;;;;;;;;;;4511279;28;10003583;-70
2021/11/21 11:02:53;;;;;;;9.90;1.75;;;;;;;;;;4990427;28;20954;-71
2021/11/21 11:05:21;;;;;;;12.00;1.90;;;;;;;;;;4993150;28;20231;-71
2021/11/21 11:07:46;;;;;;;9.38;1.38;;;;;;;;;;4991085;28;20312;-70
2021/11/21 11:10:14;;;;;;;12.70;1.80;;;;;;;;;;5000886;28;20286;-70
2021/11/21 11:13:00;;;;;;;8.13;1.30;;;;;;;;;;5005143;28;20263;-71
2021/11/21 11:15:28;;;;;;;13.17;1.67;;;;;;;;;;5001446;28;20285;-70
2021/11/21 11:17:53;;;;;;;11.53;0.90;;;;;;;;;;5005274;28;20194;-71
2021/11/21 11:20:20;;;;;;;8.17;1.17;;;;;;;;;;4995701;28;20199;-70
2021/11/21 11:22:46;;;;;;;12.73;1.33;;;;;;;;;;5003238;28;20190;-70
2021/11/21 11:25:33;;;;;;;9.27;1.13;;;;;;;;;;4999946;28;20195;-72
2021/11/21 11:28:07;;;;;;;14.07;1.40;;;;;;;;;;5002152;28;20190;-70
2021/11/21 11:30:36;;;;;;;10.97;2.30;;;;;;;;;;4991017;28;20729;-71
2021/11/21 11:33:14;;;;;;;9.57;1.63;;;;;;;;;;5002768;28;20190;-71
2021/11/21 11:35:42;;;;;;;6.18;1.00;;;;;;;;;;4993799;28;20676;-71
2021/11/21 11:38:14;;;;;;;10.35;1.15;;;;;;;;;;4996897;28;20179;-70
2021/11/21 11:40:50;;;;;;;12.00;2.20;;;;;;;;;;4986163;28;20182;-71
2021/11/21 11:43:15;;;;;;;8.10;0.93;;;;;;;;;;5010385;28;20190;-71
2021/11/21 11:45:44;;;;;;;9.25;1.30;;;;;;;;;;4989136;28;20215;-71
2021/11/21 11:48:28;;;;;;;11.30;1.38;;;;;;;;;;5002127;28;20215;-71
2021/11/21 11:50:54;;;;;;;11.50;1.35;;;;;;;;;;4996181;28;20274;-71
2021/11/21 11:53:42;;;;;;;12.73;1.58;;;;;;;;;;5008283;28;20266;-71
2021/11/21 11:56:27;;;;;;;5.75;1.02;;;;;;;;;;4991991;28;20540;-71
2021/11/21 11:59:08;;;;;;;7.50;1.27;;;;;;;;;;5003848;28;20556;-71
2021/11/21 12:01:38;;;;;;;7.55;1.33;;;;;;;;;;4994949;28;20233;-71
2021/11/21 12:04:24;;;;;;;7.43;0.80;;;;;;;;;;5007738;28;20198;-71
2021/11/21 12:06:55;;;;;;;11.38;1.42;;;;;;;;;;4995015;28;20230;-71
2021/11/21 12:09:29;;;;;;;9.20;1.17;;;;;;;;;;5004739;28;20282;-71
2021/11/21 12:11:59;;;;;;;10.15;1.60;;;;;;;;;;4998345;28;20301;-71
2021/11/21 12:14:37;;;;;;;6.10;1.05;;;;;;;;;;5012493;28;20195;-71
2021/11/21 12:17:09;;;;;;;13.27;1.45;;;;;;;;;;5003482;28;20677;-71
2021/11/21 12:19:52;;;;;;;7.82;1.20;;;;;;;;;;5008784;28;20249;-71
2021/11/21 12:22:23;;;;;;;7.53;0.90;;;;;;;;;;4995922;28;20217;-71
2021/11/21 12:24:49;;;;;;;6.95;1.13;;;;;;;;;;5005367;28;20190;-71
2021/11/21 12:27:22;;;;;;;6.95;1.00;;;;;;;;;;4993108;28;20261;-70
2021/11/21 12:30:09;;;;;;;8.85;1.13;;;;;;;;;;5001603;28;20190;-70
2021/11/21 12:32:48;;;;;;;13.65;1.35;;;;;;;;;;4994675;28;20190;-70
2021/11/21 12:35:41;;;;;;;10.50;1.55;;;;;;;;;;4994492;28;20722;-71
2021/11/21 12:38:33;;;;;;;12.45;1.63;;;;;;;;;;4985124;28;20584;-71
2021/11/21 12:41:00;;;;;;;7.57;0.90;;;;;;;;;;4991470;28;20187;-71
2021/11/21 12:43:28;;;;;;;13.45;1.33;;;;;;;;;;4991434;28;20190;-70
2021/11/21 12:45:58;;;;;;;13.35;1.23;;;;;;;;;;5010610;28;20292;-71
2021/11/21 12:48:25;;;;;;;10.50;1.20;;;;;;;;;;4982221;28;20605;-71
2021/11/21 12:51:04;;;;;;;11.18;0.85;;;;;;;;;;4998524;28;20187;-70
2021/11/21 12:53:35;;;;;;;8.50;1.52;;;;;;;;;;4992177;28;20194;-70
2021/11/21 12:56:06;;;;;;;11.50;1.27;;;;;;;;;;5003024;28;20612;-70
2021/11/21 12:58:34;;;;;;;8.43;0.82;;;;;;;;;;4992662;28;20250;-71
2021/11/21 13:01:17;;;;;;;8.20;0.70;;;;;;;;;;5001533;28;20274;-70
2021/11/21 13:03:43;;;;;;;10.88;1.13;;;;;;;;;;4991844;28;20225;-71
2021/11/21 13:06:12;;;;;;;9.15;1.40;;;;;;;;;;5005760;28;20251;-71
2021/11/21 13:08:41;;;;;;;8.25;1.17;;;;;;;;;;5000424;28;20246;-71
2021/11/21 13:11:19;;;;;;;7.53;0.85;;;;;;;;;;4997193;28;20186;-71
2021/11/21 13:13:49;;;;;;;6.55;0.90;;;;;;;;;;5000513;28;20221;-71
2021/11/21 13:16:18;;;;;;;7.25;1.20;;;;;;;;;;4998819;28;20183;-71
2021/11/21 13:18:44;;;;;;;7.40;0.90;;;;;;;;;;5000585;28;20206;-71
2021/11/21 13:21:18;;;;;;;7.47;1.17;;;;;;;;;;4990212;28;20183;-71
2021/11/21 13:23:44;;;;;;;8.85;1.00;;;;;;;;;;5001137;28;20210;-71
2021/11/21 13:26:10;;;;;;;6.43;1.27;;;;;;;;;;4992467;28;20695;-70
2021/11/21 13:28:40;;;;;;;3.60;0.80;;;;;;;;;;5001434;28;20201;-70
2021/11/21 13:31:12;;;;;;;6.40;0.50;;;;;;;;;;4995120;28;20219;-69
2021/11/21 13:33:45;;;;;;;3.13;0.40;;;;;;;;;;5000348;28;20187;-70
2021/11/21 13:36:14;;;;;;;4.72;0.68;;;;;;;;;;5002536;28;20202;-69
2021/11/21 13:38:41;;;;;;;2.80;0.52;;;;;;;;;;5005631;28;20266;-69
2021/11/21 13:41:09;;;;;;;3.00;0.40;;;;;;;;;;4994543;28;20186;-69
2021/11/21 13:43:37;;;;;;;5.07;0.43;;;;;;;;;;5006150;28;20265;-69
2021/11/21 13:46:02;;;;;;;4.05;0.70;;;;;;;;;;4997838;28;20223;-69
2021/11/21 13:48:30;;;;;;;7.13;0.70;;;;;;;;;;5008206;28;20182;-69
2021/11/21 13:50:57;;;;;;;5.70;0.60;;;;;;;;;;5010677;28;20274;-70
2021/11/21 13:53:23;;;;;;;3.97;0.52;;;;;;;;;;4996299;28;20197;-69
2021/11/21 13:56:09;;;;;;;4.57;0.75;;;;;;;;;;5010159;28;20211;-69
2021/11/21 13:58:34;;;;;;;4.18;0.50;;;;;;;;;;4994677;28;20200;-69
2021/11/21 14:01:21;;;;;;;2.25;0.50;;;;;;;;;;5008411;28;20202;-69
2021/11/21 14:03:51;;;;;;;1.27;0.47;;;;;;;;;;4998039;28;20190;-69
2021/11/21 14:06:22;;;;;;;4.70;0.90;;;;;;;;;;5003201;28;20327;-69
2021/11/21 14:08:51;;;;;;;6.30;0.60;;;;;;;;;;5000089;28;20190;-68
2021/11/21 14:11:18;;;;;;;3.93;0.40;;;;;;;;;;5005614;28;20278;-69
2021/11/21 14:13:46;;;;;;;1.70;0.40;;;;;;;;;;5002815;28;20201;-69
2021/11/21 14:16:15;;;;;;;3.37;0.50;;;;;;;;;;5002359;28;20538;-69
2021/11/21 14:18:45;;;;;;;7.07;0.90;;;;;;;;;;4997125;28;20217;-70
2021/11/21 14:21:13;;;;;;;4.17;0.57;;;;;;;;;;4999306;28;20187;-69
2021/11/21 14:23:39;;;;;;;5.53;0.83;;;;;;;;;;4995871;28;20295;-69
2021/11/21 14:26:11;;;;;;;3.87;0.77;;;;;;;;;;4998616;28;20218;-69
2021/11/21 14:28:46;;;;;;;1.80;0.67;;;;;;;;;;4997648;28;20206;-69